Terminal Aerodrome Forecast
Issued by NWS New Orleans/Baton Rouge, LA

Home | Current Version | Previous Version | Text Only | Print | Product List | Glossary On
Versions: 1 2 3 4 5 6 7 8 9 10 11 12 13 14
000
FTUS44 KLIX 231122
TAFBTR
TAF
KBTR 231122Z 2312/2412 VRB03KT P6SM FEW035 SCT110
     FM231700 06004KT P6SM VCTS SCT040CB BKN090
     FM232100 07005KT P6SM SCT045 BKN100 PROB30 2321/2403 4SM -TSRA
      OVC025CB
     FM240300 VRB03KT P6SM FEW040
     FM241100 00000KT P6SM SCT025 BKN100=

USA.gov is the U.S. government's official web portal to all federal, state and local government web resources and services.